State Line, Pennsylvania
Current Conditions -  °F | °C
As of 6:53 AM on Friday 24 Oct 2014 (Local Time) from KHGR Reporting Station
Clear Clear  
Wind Chill: 51°   Ceiling: Unl
Heat Index: 51°   Visibility: 10mi
Dew Point: 41°   Wind: 6mph
Humidity: 68%   Direction: 320°NW
Pressure: 30"   Gusts: NA
Location:  39.73°N, 77.72°W
Report Text: KHGR 241053Z 32005KT 10SM CLR 11/05 A3000 RMK AO2 SLP167 T01060050
Loading
Personal Weather Stations






























Interactive Weather Map
Tropical Storm Tracking
New forecast layout! Learn more

10-Day Weather Forecast

Advertisements
Track Severe Weather on mobile